createdAt,value
2023-03-31T00:03:27.192Z,20.6
2023-03-31T00:13:27.702Z,20.6
2023-03-31T00:23:28.354Z,20.4
2023-03-31T00:33:28.995Z,20.7
2023-03-31T00:43:29.849Z,20.5
2023-03-31T00:53:30.392Z,20.3
2023-03-31T01:03:30.694Z,20.5
2023-03-31T01:13:32.024Z,20.6
2023-03-31T01:23:32.532Z,20.4
2023-03-31T01:33:32.296Z,20.4
2023-03-31T01:43:33.894Z,20.5
2023-03-31T01:53:34.811Z,20.6
2023-03-31T02:03:35.580Z,20.4
2023-03-31T02:13:36.237Z,20.6
2023-03-31T02:23:36.993Z,20.4
2023-03-31T02:33:37.730Z,20.4
2023-03-31T02:43:38.485Z,20.7
2023-03-31T02:53:38.895Z,20.6
2023-03-31T03:03:08.818Z,20.7
2023-03-31T03:13:09.181Z,20.8
2023-03-31T03:23:08.998Z,20.6
2023-03-31T03:33:09.148Z,20.6
2023-03-31T03:43:09.231Z,20.7
2023-03-31T03:53:09.740Z,20.4
2023-03-31T04:03:10.348Z,20.3
2023-03-31T04:13:11.899Z,20.6
2023-03-31T04:23:13.557Z,20.5
2023-03-31T04:33:15.019Z,20.5
2023-03-31T04:43:16.738Z,20.4
2023-03-31T04:53:18.423Z,20.4
2023-03-31T05:03:19.620Z,20.4
2023-03-31T05:13:20.182Z,20.4
2023-03-31T05:23:21.075Z,20.7
2023-03-31T05:33:24.286Z,23.3
2023-03-31T05:43:28.938Z,23.6
2023-03-31T05:53:40.488Z,24.8
2023-03-31T06:03:54.244Z,23.6
2023-03-31T06:13:57.065Z,20.6
2023-03-31T06:23:59.006Z,22
2023-03-31T06:34:03.479Z,23.6
2023-03-31T06:44:14.573Z,24.3
2023-03-31T06:54:26.741Z,25.3
2023-03-31T07:04:41.745Z,25.1
2023-03-31T07:14:58.389Z,25.3
2023-03-31T07:25:17.257Z,26.1
2023-03-31T07:35:36.555Z,26.4
2023-03-31T07:45:55.422Z,25.8
2023-03-31T07:56:09.802Z,26.5
2023-03-31T08:06:25.292Z,26.9
2023-03-31T08:16:39.496Z,26.4
2023-03-31T08:26:51.618Z,27.1
2023-03-31T08:37:05.254Z,27.1
2023-03-31T08:47:15.180Z,27.3
2023-03-31T08:57:27.722Z,27.4
2023-03-31T09:03:12.252Z,27.6
2023-03-31T09:13:24.853Z,27.7
2023-03-31T09:23:37.698Z,28.1
2023-03-31T09:33:59.176Z,29.3
2023-03-31T09:44:17.627Z,29.2
2023-03-31T09:54:26.066Z,27.3
2023-03-31T10:04:40.175Z,26.4
2023-03-31T10:14:49.876Z,27.3
2023-03-31T10:25:02.583Z,28.2
2023-03-31T10:35:10.642Z,25.9
2023-03-31T10:45:33.996Z,26.4
2023-03-31T10:55:28.785Z,25.5
2023-03-31T11:05:34.034Z,24.6
2023-03-31T11:15:39.387Z,26.4
2023-03-31T11:25:42.568Z,25.2
2023-03-31T11:35:51.259Z,25.1
2023-03-31T11:45:57.306Z,25.9
2023-03-31T11:56:03.812Z,26
2023-03-31T12:06:11.073Z,26.6
2023-03-31T12:16:17.541Z,25.6
2023-03-31T12:26:22.923Z,26.3
2023-03-31T12:36:28.377Z,26.3
2023-03-31T12:46:34.816Z,24.4
2023-03-31T12:56:39.524Z,24.9
2023-03-31T13:06:44.363Z,25.4
2023-03-31T13:16:49.390Z,25.4
2023-03-31T13:26:53.442Z,22.9
2023-03-31T13:36:53.667Z,25.1
2023-03-31T13:46:55.278Z,23.6
2023-03-31T13:56:56.071Z,23.6
2023-03-31T14:06:57.703Z,22.4
2023-03-31T14:17:01.296Z,23.4
2023-03-31T14:27:01.838Z,23.3
2023-03-31T14:37:02.274Z,23.3
2023-03-31T14:47:02.473Z,23.2
2023-03-31T14:57:02.574Z,23.3
2023-03-31T15:03:09.761Z,23.6
2023-03-31T15:13:10.794Z,23.4
2023-03-31T15:23:11.091Z,20.9
2023-03-31T15:33:18.677Z,21.5
2023-03-31T15:48:25.229Z,21.5
2023-03-31T15:58:24.984Z,21.3
2023-03-31T16:08:24.125Z,21.5
2023-03-31T16:18:23.407Z,21.8
2023-03-31T16:28:23.474Z,23.4
2023-03-31T16:38:23.763Z,23.3
2023-03-31T16:48:23.939Z,23.3
2023-03-31T16:58:24.057Z,20.9
2023-03-31T17:08:24.719Z,22.6
2023-03-31T17:18:24.574Z,22.8
2023-03-31T17:28:25.323Z,20.6
2023-03-31T17:38:25.148Z,20.7
2023-03-31T17:48:25.760Z,20.6
2023-03-31T17:58:25.811Z,20.7
2023-03-31T18:08:25.119Z,21
2023-03-31T18:18:26.071Z,22.9
2023-03-31T18:28:26.176Z,21
2023-03-31T18:38:26.571Z,22.8
2023-03-31T18:48:26.494Z,20.7
2023-03-31T18:58:26.028Z,20.7
2023-03-31T19:08:26.314Z,22.7
2023-03-31T19:18:27.082Z,20.5
2023-03-31T19:28:25.790Z,22.8
2023-03-31T19:38:26.472Z,20.7
2023-03-31T19:48:26.703Z,20.6
2023-03-31T19:58:27.197Z,20.8
2023-03-31T20:08:27.660Z,20.3
2023-03-31T20:18:28.059Z,20.6
2023-03-31T20:28:27.990Z,20.5
2023-03-31T20:38:28.069Z,20.2
2023-03-31T20:48:28.182Z,22.1
2023-03-31T20:58:28.601Z,20.4
2023-03-31T21:03:08.913Z,21.7
2023-03-31T21:13:09.551Z,21.5
2023-03-31T21:23:09.722Z,21.4
2023-03-31T21:33:10.285Z,21.6
2023-03-31T21:43:10.496Z,21.6
2023-03-31T21:53:10.972Z,21.6
2023-03-31T22:03:26.297Z,21.5
2023-03-31T22:13:13.837Z,21.3
2023-03-31T22:23:15.788Z,21.3
2023-03-31T22:33:17.579Z,21.4
2023-03-31T22:43:19.310Z,21.2
2023-03-31T22:53:21.052Z,21
2023-03-31T23:03:22.220Z,21.3
2023-03-31T23:13:22.501Z,21.3
2023-03-31T23:23:23.031Z,21.3
2023-03-31T23:33:23.363Z,21.3
2023-03-31T23:43:23.822Z,21.3
2023-03-31T23:53:24.386Z,21.6
